Dahlby, Mark
United StatesManBorn 19632008 – 2023Runner id 76539
Events
45
2008 – 2023
Best pace
10.461
km/h · 2015
Best finish
2nd
of 18 · 2015
Distance raced
3,108
km · splits not double-counted
Pace over time
km/h · higher is faster
Pace over time: 45 races from 2008 to 2023, ranging from 2.15 to 11.87 kilometres per hour, where higher is faster. A second, age-graded series is drawn above it; the gap between the two is the age credit.
- Actual pace
- Age-graded pace
Results
| Date | Event | Distance | Result | Pace km/h | Placing |
|---|---|---|---|---|---|
| 2008-06-14 | Lake Youngs UltraUnited States | 28.8mi | 4:51:59 h | 9.524 | 48/95 |
| 2008-11-15 | 50mi | 8:58:21 h | 8.968 | 14/32 | |
| 2009-03-21 | Chuckanut 50KUnited States | 50km | 6:16:43 h | 7.964 | 169/270 |
| 2009-04-19 | 50mi | 9:11:06 h | 8.761 | 32/48 | |
| 2009-05-16 | Watershed Preserve 12 Hr Trail RaceUnited States | 12h | 51.901 km | 4.325 | 49/66 |
| 2009-06-13 | Lake Youngs UltraUnited States | 28.8mi | 4:43:02 h | 9.826 | 26/58 |
| 2009-07-11 | 50km | 6:31:33 h | 7.662 | 18/36 | |
| 2009-07-25 | 50mi | 12:42:24 h | 6.333 | 152/166 | |
| 2009-09-26 | 100mi | 28:15:06 h | 5.696 | 72/87 | |
| 2009-10-31 | 12h | 52.802 km | 4.400 | 19/33 | |
| 2010-01-16 | 34mi | 5:48:00 h | 9.434 | 25/38 | |
| 2010-02-20 | 50km | 6:18:12 h | 7.932 | 87/126 | |
| 2010-03-20 | 24h | 51.499 km | 2.146 | 57/73 | |
| 2010-04-09 | 50mi | 11:33:00 h | 6.967 | 16/26 | |
| 2010-06-05 | 50mi | 9:55:51 h | 8.103 | 19/40 | |
| 2010-07-10 | 50km | 7:51:00 h | 6.369 | 20/31 | |
| 2010-08-21 | 100km | 15:53:34 h | 6.292 | 78/107 | |
| 2010-10-16 | 50km | 5:53:33 h | 8.485 | 46/97 | |
| 2010-10-30 | 50km | 5:37:50 h | 8.880 | 28/61 | |
| 2011-03-19 | 24h | 67.592 km | 2.816 | 49/67 | |
| 2011-06-04 | 50mi | 10:03:22 h | 8.002 | 18/53 | |
| 2011-07-16 | 100mi | 31:42:22 h | 5.076 | 42/65 | |
| 2012-03-30 | 100mi | 28:12:35 h | 5.705 | 20/36 | |
| 2012-10-13 | 50mi | 10:22:50 h | 7.752 | 67/98 | |
| 2013-10-05 | 50km | 7:20:19 h | 6.813 | 117/188 | |
| 2013-11-09 | Croatan 24-Hour UltramarathonUnited States | 24h | 66.131 km | 2.755 | 95/111 |
| 2014-03-15 | 24h | 51.499 km | 2.146 | 34/41 | |
| 2014-04-12 | Lumberjack Endurance 50 Mile RunUnited States | 50mi | 10:36:00 h | 7.591 | 4/19 |
| 2014-07-26 | 50mi | 11:38:22 h | 6.913 | 150/248 | |
| 2015-03-21 | Pacific Rim One DayUnited States | 24h | 51.499 km | 2.146 | 35/43 |
| 2015-04-11 | Lumberjack Endurance 50 Mile RunUnited States | 50mi | 9:55:00 h | 8.114 | 2/18 |
| 2015-12-19 | Pigtails Run 50KUnited States | 50km | 4:46:47 h | 10.461 | 7/23 |
| 2016-01-09 | Bandera 100 km UltratrailUnited States | 100km | 13:59:14 h | 7.149 | 90/229 |
| 2016-03-19 | 24h | 51.499 km | 2.146 | 36/46 | |
| 2016-05-29 | 50km | 5:42:18 h | 8.764 | 6/23 | |
| 2016-06-18 | 108km | 19:05:09 h | 5.659 | 32/50 | |
| 2016-10-16 | 50km | 4:48:18 h | 10.406 | 8/19 | |
| 2017-02-18 | 60km | 8:19:32 h | 7.207 | 43/110 | |
| 2017-03-17 | 24h | 51.499 km | 2.146 | 42/51 | |
| 2018-03-17 | 24h | 56.327 km | 2.347 | 39/49 | |
| 2018-05-12 | 50km | 6:51:21 h | 7.293 | 61/179 | |
| 2019-03-16 | 24h | 51.499 km | 2.146 | 70/78 | |
| 2019-04-20 | 50km | 7:20:00 h | 6.818 | 6/13 | |
| 2021-07-17 | 50km | 10:23:02 h | 4.815 | 159/176 | |
| 2023-03-25 | 24h | 51.499 km | 2.146 | 59/63 |